sensor_id;sensor_type;location;lat;lon;timestamp;P1;durP1;ratioP1;P2;durP2;ratioP2
18793;SDS011;29610;49.022;12.114;2023-11-19T00:01:19;17.97;;;8.83;;
18793;SDS011;29610;49.022;12.114;2023-11-19T00:03:47;17.00;;;7.30;;
18793;SDS011;29610;49.022;12.114;2023-11-19T00:06:17;18.10;;;7.90;;
18793;SDS011;29610;49.022;12.114;2023-11-19T00:08:45;16.60;;;8.27;;
18793;SDS011;29610;49.022;12.114;2023-11-19T00:11:14;16.23;;;8.70;;
18793;SDS011;29610;49.022;12.114;2023-11-19T00:13:42;14.03;;;7.20;;
18793;SDS011;29610;49.022;12.114;2023-11-19T00:16:10;18.63;;;7.40;;
18793;SDS011;29610;49.022;12.114;2023-11-19T00:18:39;18.13;;;8.17;;
18793;SDS011;29610;49.022;12.114;2023-11-19T00:21:07;15.73;;;8.27;;
18793;SDS011;29610;49.022;12.114;2023-11-19T00:23:36;10.43;;;5.97;;
18793;SDS011;29610;49.022;12.114;2023-11-19T00:26:06;14.20;;;5.97;;
18793;SDS011;29610;49.022;12.114;2023-11-19T00:28:36;13.37;;;6.30;;
18793;SDS011;29610;49.022;12.114;2023-11-19T00:31:05;13.83;;;6.07;;
18793;SDS011;29610;49.022;12.114;2023-11-19T00:33:33;11.30;;;5.70;;
18793;SDS011;29610;49.022;12.114;2023-11-19T00:36:14;11.50;;;5.47;;
18793;SDS011;29610;49.022;12.114;2023-11-19T00:38:42;12.47;;;6.00;;
18793;SDS011;29610;49.022;12.114;2023-11-19T00:41:12;15.83;;;6.70;;
18793;SDS011;29610;49.022;12.114;2023-11-19T00:43:42;13.13;;;5.97;;
18793;SDS011;29610;49.022;12.114;2023-11-19T00:46:10;13.00;;;7.00;;
18793;SDS011;29610;49.022;12.114;2023-11-19T00:48:43;15.90;;;6.77;;
18793;SDS011;29610;49.022;12.114;2023-11-19T00:51:13;12.13;;;6.30;;
18793;SDS011;29610;49.022;12.114;2023-11-19T00:53:41;14.33;;;5.90;;
18793;SDS011;29610;49.022;12.114;2023-11-19T00:56:11;13.17;;;5.90;;
18793;SDS011;29610;49.022;12.114;2023-11-19T00:58:40;12.63;;;5.67;;
18793;SDS011;29610;49.022;12.114;2023-11-19T01:01:09;10.97;;;5.80;;
18793;SDS011;29610;49.022;12.114;2023-11-19T01:03:38;11.93;;;6.03;;
18793;SDS011;29610;49.022;12.114;2023-11-19T01:06:07;16.57;;;6.43;;
18793;SDS011;29610;49.022;12.114;2023-11-19T01:08:36;12.03;;;5.80;;
18793;SDS011;29610;49.022;12.114;2023-11-19T01:11:04;10.77;;;5.80;;
18793;SDS011;29610;49.022;12.114;2023-11-19T01:13:33;9.47;;;5.40;;
18793;SDS011;29610;49.022;12.114;2023-11-19T01:16:02;11.90;;;5.37;;
18793;SDS011;29610;49.022;12.114;2023-11-19T01:18:31;11.23;;;5.80;;
18793;SDS011;29610;49.022;12.114;2023-11-19T01:21:00;11.43;;;5.93;;
18793;SDS011;29610;49.022;12.114;2023-11-19T01:23:28;11.57;;;5.13;;
18793;SDS011;29610;49.022;12.114;2023-11-19T01:25:56;11.57;;;5.60;;
18793;SDS011;29610;49.022;12.114;2023-11-19T01:28:24;13.00;;;5.30;;
18793;SDS011;29610;49.022;12.114;2023-11-19T01:30:54;10.83;;;5.40;;
18793;SDS011;29610;49.022;12.114;2023-11-19T01:33:22;13.77;;;5.93;;
18793;SDS011;29610;49.022;12.114;2023-11-19T01:35:51;9.90;;;4.83;;
18793;SDS011;29610;49.022;12.114;2023-11-19T01:38:19;14.97;;;6.40;;
18793;SDS011;29610;49.022;12.114;2023-11-19T01:40:47;17.60;;;5.67;;
18793;SDS011;29610;49.022;12.114;2023-11-19T01:43:30;11.83;;;6.00;;
18793;SDS011;29610;49.022;12.114;2023-11-19T01:46:04;11.80;;;5.60;;
18793;SDS011;29610;49.022;12.114;2023-11-19T01:48:36;12.67;;;5.57;;
18793;SDS011;29610;49.022;12.114;2023-11-19T01:51:11;11.27;;;6.03;;
18793;SDS011;29610;49.022;12.114;2023-11-19T01:53:43;10.20;;;5.30;;
18793;SDS011;29610;49.022;12.114;2023-11-19T01:56:13;8.90;;;4.80;;
18793;SDS011;29610;49.022;12.114;2023-11-19T01:58:42;12.77;;;5.60;;
18793;SDS011;29610;49.022;12.114;2023-11-19T02:01:15;13.20;;;5.60;;
18793;SDS011;29610;49.022;12.114;2023-11-19T02:03:44;12.57;;;5.80;;
18793;SDS011;29610;49.022;12.114;2023-11-19T02:06:13;11.00;;;5.33;;
18793;SDS011;29610;49.022;12.114;2023-11-19T02:08:43;12.50;;;6.07;;
18793;SDS011;29610;49.022;12.114;2023-11-19T02:11:11;12.13;;;6.20;;
18793;SDS011;29610;49.022;12.114;2023-11-19T02:13:40;10.90;;;5.40;;
18793;SDS011;29610;49.022;12.114;2023-11-19T02:16:10;11.63;;;6.03;;
18793;SDS011;29610;49.022;12.114;2023-11-19T02:18:40;10.77;;;5.40;;
18793;SDS011;29610;49.022;12.114;2023-11-19T02:21:08;11.40;;;6.30;;
18793;SDS011;29610;49.022;12.114;2023-11-19T02:23:37;12.83;;;6.00;;
18793;SDS011;29610;49.022;12.114;2023-11-19T02:26:12;10.23;;;4.80;;
18793;SDS011;29610;49.022;12.114;2023-11-19T02:28:54;13.63;;;5.17;;
18793;SDS011;29610;49.022;12.114;2023-11-19T02:31:23;11.40;;;5.27;;
18793;SDS011;29610;49.022;12.114;2023-11-19T02:33:54;12.80;;;6.33;;
18793;SDS011;29610;49.022;12.114;2023-11-19T02:36:22;10.20;;;5.53;;
18793;SDS011;29610;49.022;12.114;2023-11-19T02:38:50;10.83;;;6.00;;
18793;SDS011;29610;49.022;12.114;2023-11-19T02:41:19;13.17;;;5.53;;
18793;SDS011;29610;49.022;12.114;2023-11-19T02:43:47;12.37;;;6.10;;
18793;SDS011;29610;49.022;12.114;2023-11-19T02:46:17;12.07;;;5.50;;
18793;SDS011;29610;49.022;12.114;2023-11-19T02:48:46;15.03;;;5.97;;
18793;SDS011;29610;49.022;12.114;2023-11-19T02:51:14;12.83;;;5.70;;
18793;SDS011;29610;49.022;12.114;2023-11-19T02:53:42;12.37;;;6.00;;
18793;SDS011;29610;49.022;12.114;2023-11-19T02:56:11;13.20;;;7.23;;
18793;SDS011;29610;49.022;12.114;2023-11-19T02:58:46;15.20;;;6.97;;
18793;SDS011;29610;49.022;12.114;2023-11-19T03:01:22;15.50;;;7.50;;
18793;SDS011;29610;49.022;12.114;2023-11-19T03:03:57;10.30;;;5.30;;
18793;SDS011;29610;49.022;12.114;2023-11-19T03:06:30;11.53;;;5.60;;
18793;SDS011;29610;49.022;12.114;2023-11-19T03:08:58;11.27;;;6.13;;
18793;SDS011;29610;49.022;12.114;2023-11-19T03:11:32;14.23;;;6.57;;
18793;SDS011;29610;49.022;12.114;2023-11-19T03:14:00;14.70;;;7.07;;
18793;SDS011;29610;49.022;12.114;2023-11-19T03:16:30;14.07;;;6.70;;
18793;SDS011;29610;49.022;12.114;2023-11-19T03:18:59;22.80;;;7.50;;
18793;SDS011;29610;49.022;12.114;2023-11-19T03:21:28;13.50;;;6.90;;
18793;SDS011;29610;49.022;12.114;2023-11-19T03:23:57;13.00;;;6.60;;
18793;SDS011;29610;49.022;12.114;2023-11-19T03:26:26;13.70;;;6.40;;
18793;SDS011;29610;49.022;12.114;2023-11-19T03:28:54;10.40;;;5.63;;
18793;SDS011;29610;49.022;12.114;2023-11-19T03:31:23;13.10;;;6.73;;
18793;SDS011;29610;49.022;12.114;2023-11-19T03:33:53;12.60;;;5.80;;
18793;SDS011;29610;49.022;12.114;2023-11-19T03:36:25;15.30;;;6.63;;
18793;SDS011;29610;49.022;12.114;2023-11-19T03:39:00;12.03;;;6.03;;
18793;SDS011;29610;49.022;12.114;2023-11-19T03:41:29;13.70;;;6.63;;
18793;SDS011;29610;49.022;12.114;2023-11-19T03:44:07;16.20;;;6.90;;
18793;SDS011;29610;49.022;12.114;2023-11-19T03:46:35;11.63;;;6.27;;
18793;SDS011;29610;49.022;12.114;2023-11-19T03:49:05;16.17;;;7.10;;
18793;SDS011;29610;49.022;12.114;2023-11-19T03:51:34;15.20;;;6.43;;
18793;SDS011;29610;49.022;12.114;2023-11-19T03:54:03;15.70;;;8.07;;
18793;SDS011;29610;49.022;12.114;2023-11-19T03:56:32;14.90;;;6.60;;
18793;SDS011;29610;49.022;12.114;2023-11-19T03:59:00;12.30;;;6.87;;
18793;SDS011;29610;49.022;12.114;2023-11-19T04:01:29;15.90;;;6.87;;
18793;SDS011;29610;49.022;12.114;2023-11-19T04:03:57;17.03;;;7.20;;
18793;SDS011;29610;49.022;12.114;2023-11-19T04:06:27;15.83;;;7.20;;
18793;SDS011;29610;49.022;12.114;2023-11-19T04:08:55;13.83;;;7.30;;
18793;SDS011;29610;49.022;12.114;2023-11-19T04:11:23;16.07;;;6.90;;
18793;SDS011;29610;49.022;12.114;2023-11-19T04:13:51;13.67;;;6.60;;
18793;SDS011;29610;49.022;12.114;2023-11-19T04:16:25;14.67;;;7.43;;
18793;SDS011;29610;49.022;12.114;2023-11-19T04:18:55;13.70;;;6.23;;
18793;SDS011;29610;49.022;12.114;2023-11-19T04:21:24;12.40;;;5.90;;
18793;SDS011;29610;49.022;12.114;2023-11-19T04:23:54;15.80;;;6.83;;
18793;SDS011;29610;49.022;12.114;2023-11-19T04:26:22;11.63;;;6.07;;
18793;SDS011;29610;49.022;12.114;2023-11-19T04:28:50;13.17;;;6.30;;
18793;SDS011;29610;49.022;12.114;2023-11-19T04:31:19;14.53;;;5.70;;
18793;SDS011;29610;49.022;12.114;2023-11-19T04:33:47;14.90;;;7.07;;
18793;SDS011;29610;49.022;12.114;2023-11-19T04:36:18;15.17;;;5.97;;
18793;SDS011;29610;49.022;12.114;2023-11-19T04:38:47;13.87;;;6.80;;
18793;SDS011;29610;49.022;12.114;2023-11-19T04:41:16;13.17;;;6.57;;
18793;SDS011;29610;49.022;12.114;2023-11-19T04:43:44;12.40;;;6.60;;
18793;SDS011;29610;49.022;12.114;2023-11-19T04:46:13;17.07;;;5.90;;
18793;SDS011;29610;49.022;12.114;2023-11-19T04:48:41;16.87;;;7.17;;
18793;SDS011;29610;49.022;12.114;2023-11-19T04:51:09;12.53;;;7.23;;
18793;SDS011;29610;49.022;12.114;2023-11-19T04:53:37;12.47;;;6.47;;
18793;SDS011;29610;49.022;12.114;2023-11-19T04:56:09;12.07;;;5.57;;
18793;SDS011;29610;49.022;12.114;2023-11-19T04:58:39;12.03;;;6.23;;
18793;SDS011;29610;49.022;12.114;2023-11-19T05:01:13;17.43;;;6.73;;
18793;SDS011;29610;49.022;12.114;2023-11-19T05:03:43;12.67;;;6.27;;
18793;SDS011;29610;49.022;12.114;2023-11-19T05:06:12;12.20;;;6.93;;
18793;SDS011;29610;49.022;12.114;2023-11-19T05:08:41;14.00;;;6.80;;
18793;SDS011;29610;49.022;12.114;2023-11-19T05:11:09;12.40;;;6.10;;
18793;SDS011;29610;49.022;12.114;2023-11-19T05:13:41;12.53;;;6.40;;
18793;SDS011;29610;49.022;12.114;2023-11-19T05:16:11;12.43;;;6.17;;
18793;SDS011;29610;49.022;12.114;2023-11-19T05:18:40;14.17;;;6.40;;
18793;SDS011;29610;49.022;12.114;2023-11-19T05:21:09;15.80;;;6.90;;
18793;SDS011;29610;49.022;12.114;2023-11-19T05:23:37;12.60;;;6.23;;
18793;SDS011;29610;49.022;12.114;2023-11-19T05:26:08;12.37;;;6.50;;
18793;SDS011;29610;49.022;12.114;2023-11-19T05:28:37;13.00;;;6.60;;
18793;SDS011;29610;49.022;12.114;2023-11-19T05:31:07;15.83;;;7.67;;
18793;SDS011;29610;49.022;12.114;2023-11-19T05:33:36;15.00;;;7.50;;
18793;SDS011;29610;49.022;12.114;2023-11-19T05:36:04;13.93;;;6.23;;
18793;SDS011;29610;49.022;12.114;2023-11-19T05:38:34;15.90;;;6.50;;
18793;SDS011;29610;49.022;12.114;2023-11-19T05:41:03;15.77;;;7.97;;
18793;SDS011;29610;49.022;12.114;2023-11-19T05:43:32;15.20;;;7.43;;
18793;SDS011;29610;49.022;12.114;2023-11-19T05:46:00;14.80;;;7.47;;
18793;SDS011;29610;49.022;12.114;2023-11-19T05:48:30;15.00;;;7.60;;
18793;SDS011;29610;49.022;12.114;2023-11-19T05:50:59;17.47;;;8.00;;
18793;SDS011;29610;49.022;12.114;2023-11-19T05:53:27;18.10;;;8.40;;
18793;SDS011;29610;49.022;12.114;2023-11-19T05:55:55;18.27;;;8.40;;
18793;SDS011;29610;49.022;12.114;2023-11-19T05:58:24;19.40;;;8.70;;
18793;SDS011;29610;49.022;12.114;2023-11-19T06:00:55;17.20;;;8.13;;
18793;SDS011;29610;49.022;12.114;2023-11-19T06:03:23;14.63;;;7.30;;
18793;SDS011;29610;49.022;12.114;2023-11-19T06:05:53;14.47;;;6.70;;
18793;SDS011;29610;49.022;12.114;2023-11-19T06:08:21;15.60;;;8.70;;
18793;SDS011;29610;49.022;12.114;2023-11-19T06:10:49;17.50;;;7.57;;
18793;SDS011;29610;49.022;12.114;2023-11-19T06:13:18;14.50;;;7.20;;
18793;SDS011;29610;49.022;12.114;2023-11-19T06:15:50;18.17;;;8.47;;
18793;SDS011;29610;49.022;12.114;2023-11-19T06:18:18;18.30;;;8.57;;
18793;SDS011;29610;49.022;12.114;2023-11-19T06:20:48;15.60;;;7.47;;
18793;SDS011;29610;49.022;12.114;2023-11-19T06:23:17;16.60;;;7.93;;
18793;SDS011;29610;49.022;12.114;2023-11-19T06:25:45;18.93;;;8.93;;
18793;SDS011;29610;49.022;12.114;2023-11-19T06:28:14;14.73;;;7.17;;
18793;SDS011;29610;49.022;12.114;2023-11-19T06:30:42;14.90;;;7.40;;
18793;SDS011;29610;49.022;12.114;2023-11-19T06:33:14;17.93;;;8.67;;
18793;SDS011;29610;49.022;12.114;2023-11-19T06:35:43;16.73;;;7.40;;
18793;SDS011;29610;49.022;12.114;2023-11-19T06:38:11;17.87;;;7.90;;
18793;SDS011;29610;49.022;12.114;2023-11-19T06:40:41;17.27;;;7.93;;
18793;SDS011;29610;49.022;12.114;2023-11-19T06:43:10;18.57;;;9.00;;
18793;SDS011;29610;49.022;12.114;2023-11-19T06:45:38;19.50;;;9.30;;
18793;SDS011;29610;49.022;12.114;2023-11-19T06:48:06;21.40;;;10.63;;
18793;SDS011;29610;49.022;12.114;2023-11-19T06:50:34;21.60;;;8.80;;
18793;SDS011;29610;49.022;12.114;2023-11-19T06:53:03;19.33;;;9.63;;
18793;SDS011;29610;49.022;12.114;2023-11-19T06:55:32;19.00;;;9.33;;
18793;SDS011;29610;49.022;12.114;2023-11-19T06:58:02;18.03;;;9.00;;
18793;SDS011;29610;49.022;12.114;2023-11-19T07:00:30;16.90;;;8.30;;
18793;SDS011;29610;49.022;12.114;2023-11-19T07:02:59;21.00;;;10.40;;
18793;SDS011;29610;49.022;12.114;2023-11-19T07:05:27;19.03;;;9.40;;
18793;SDS011;29610;49.022;12.114;2023-11-19T07:07:56;15.30;;;9.40;;
18793;SDS011;29610;49.022;12.114;2023-11-19T07:10:24;19.47;;;8.53;;
18793;SDS011;29610;49.022;12.114;2023-11-19T07:12:53;17.90;;;9.00;;
18793;SDS011;29610;49.022;12.114;2023-11-19T07:15:22;18.20;;;8.93;;
18793;SDS011;29610;49.022;12.114;2023-11-19T07:17:50;20.40;;;9.27;;
18793;SDS011;29610;49.022;12.114;2023-11-19T07:20:23;14.03;;;7.77;;
18793;SDS011;29610;49.022;12.114;2023-11-19T07:22:53;19.00;;;9.70;;
18793;SDS011;29610;49.022;12.114;2023-11-19T07:25:24;14.90;;;7.40;;
18793;SDS011;29610;49.022;12.114;2023-11-19T07:27:53;17.63;;;8.37;;
18793;SDS011;29610;49.022;12.114;2023-11-19T07:30:22;20.90;;;7.50;;
18793;SDS011;29610;49.022;12.114;2023-11-19T07:32:50;15.13;;;7.47;;
18793;SDS011;29610;49.022;12.114;2023-11-19T07:35:19;13.03;;;6.80;;
18793;SDS011;29610;49.022;12.114;2023-11-19T07:37:47;12.70;;;7.47;;
18793;SDS011;29610;49.022;12.114;2023-11-19T07:40:16;13.90;;;7.20;;
18793;SDS011;29610;49.022;12.114;2023-11-19T07:42:45;15.03;;;8.03;;
18793;SDS011;29610;49.022;12.114;2023-11-19T07:45:13;14.23;;;7.03;;
18793;SDS011;29610;49.022;12.114;2023-11-19T07:47:43;15.10;;;7.27;;
18793;SDS011;29610;49.022;12.114;2023-11-19T07:50:11;17.37;;;8.63;;
18793;SDS011;29610;49.022;12.114;2023-11-19T07:52:40;14.90;;;7.87;;
18793;SDS011;29610;49.022;12.114;2023-11-19T07:55:08;14.40;;;6.70;;
18793;SDS011;29610;49.022;12.114;2023-11-19T07:57:37;13.67;;;6.77;;
18793;SDS011;29610;49.022;12.114;2023-11-19T08:00:05;14.47;;;6.70;;
18793;SDS011;29610;49.022;12.114;2023-11-19T08:02:38;14.13;;;6.70;;
18793;SDS011;29610;49.022;12.114;2023-11-19T08:05:08;14.13;;;6.13;;
18793;SDS011;29610;49.022;12.114;2023-11-19T08:07:37;12.83;;;6.30;;
18793;SDS011;29610;49.022;12.114;2023-11-19T08:10:05;15.63;;;7.70;;
18793;SDS011;29610;49.022;12.114;2023-11-19T08:12:36;17.23;;;6.57;;
18793;SDS011;29610;49.022;12.114;2023-11-19T08:15:04;13.07;;;6.60;;
18793;SDS011;29610;49.022;12.114;2023-11-19T08:17:33;17.43;;;7.10;;
18793;SDS011;29610;49.022;12.114;2023-11-19T08:20:02;18.60;;;8.90;;
18793;SDS011;29610;49.022;12.114;2023-11-19T08:22:37;22.67;;;9.30;;
18793;SDS011;29610;49.022;12.114;2023-11-19T08:25:06;13.87;;;7.40;;
18793;SDS011;29610;49.022;12.114;2023-11-19T08:27:36;12.53;;;6.33;;
18793;SDS011;29610;49.022;12.114;2023-11-19T08:30:04;14.20;;;7.63;;
18793;SDS011;29610;49.022;12.114;2023-11-19T08:32:33;13.90;;;7.50;;
18793;SDS011;29610;49.022;12.114;2023-11-19T08:35:03;14.50;;;6.50;;
18793;SDS011;29610;49.022;12.114;2023-11-19T08:37:32;16.70;;;7.80;;
18793;SDS011;29610;49.022;12.114;2023-11-19T08:40:01;15.30;;;8.00;;
18793;SDS011;29610;49.022;12.114;2023-11-19T08:42:30;12.43;;;6.67;;
18793;SDS011;29610;49.022;12.114;2023-11-19T08:44:58;16.70;;;7.23;;
18793;SDS011;29610;49.022;12.114;2023-11-19T08:47:27;16.27;;;8.07;;
18793;SDS011;29610;49.022;12.114;2023-11-19T08:49:55;14.50;;;6.03;;
18793;SDS011;29610;49.022;12.114;2023-11-19T08:52:26;10.43;;;5.60;;
18793;SDS011;29610;49.022;12.114;2023-11-19T08:54:57;14.33;;;6.73;;
18793;SDS011;29610;49.022;12.114;2023-11-19T08:57:27;13.63;;;7.17;;
18793;SDS011;29610;49.022;12.114;2023-11-19T08:59:55;15.80;;;8.47;;
18793;SDS011;29610;49.022;12.114;2023-11-19T09:02:23;16.60;;;7.77;;
18793;SDS011;29610;49.022;12.114;2023-11-19T09:04:52;16.50;;;7.40;;
18793;SDS011;29610;49.022;12.114;2023-11-19T09:07:20;12.23;;;6.23;;
18793;SDS011;29610;49.022;12.114;2023-11-19T09:09:48;11.80;;;6.20;;
18793;SDS011;29610;49.022;12.114;2023-11-19T09:12:17;12.30;;;6.90;;
18793;SDS011;29610;49.022;12.114;2023-11-19T09:14:46;10.90;;;5.90;;
18793;SDS011;29610;49.022;12.114;2023-11-19T09:17:15;10.33;;;5.50;;
18793;SDS011;29610;49.022;12.114;2023-11-19T09:19:44;11.97;;;6.10;;
18793;SDS011;29610;49.022;12.114;2023-11-19T09:22:13;11.20;;;6.10;;
18793;SDS011;29610;49.022;12.114;2023-11-19T09:24:41;10.57;;;5.57;;
18793;SDS011;29610;49.022;12.114;2023-11-19T09:27:10;14.20;;;7.17;;
18793;SDS011;29610;49.022;12.114;2023-11-19T09:29:38;12.10;;;6.67;;
18793;SDS011;29610;49.022;12.114;2023-11-19T09:32:08;9.90;;;5.70;;
18793;SDS011;29610;49.022;12.114;2023-11-19T09:34:36;13.17;;;6.93;;
18793;SDS011;29610;49.022;12.114;2023-11-19T09:37:04;10.60;;;5.97;;
18793;SDS011;29610;49.022;12.114;2023-11-19T09:39:47;10.77;;;5.70;;
18793;SDS011;29610;49.022;12.114;2023-11-19T09:42:15;11.73;;;6.20;;
18793;SDS011;29610;49.022;12.114;2023-11-19T09:44:44;12.57;;;6.40;;
18793;SDS011;29610;49.022;12.114;2023-11-19T09:47:16;11.30;;;5.90;;
18793;SDS011;29610;49.022;12.114;2023-11-19T09:49:46;12.10;;;6.23;;
18793;SDS011;29610;49.022;12.114;2023-11-19T09:52:17;11.93;;;6.40;;
18793;SDS011;29610;49.022;12.114;2023-11-19T09:54:45;11.33;;;5.47;;
18793;SDS011;29610;49.022;12.114;2023-11-19T09:57:13;10.37;;;6.00;;
18793;SDS011;29610;49.022;12.114;2023-11-19T09:59:44;12.30;;;6.03;;
18793;SDS011;29610;49.022;12.114;2023-11-19T10:02:15;12.50;;;6.97;;
18793;SDS011;29610;49.022;12.114;2023-11-19T10:04:44;14.07;;;7.00;;
18793;SDS011;29610;49.022;12.114;2023-11-19T10:07:16;10.80;;;5.93;;
18793;SDS011;29610;49.022;12.114;2023-11-19T10:09:44;9.53;;;5.50;;
18793;SDS011;29610;49.022;12.114;2023-11-19T10:12:14;9.97;;;5.50;;
18793;SDS011;29610;49.022;12.114;2023-11-19T10:14:43;15.83;;;7.90;;
18793;SDS011;29610;49.022;12.114;2023-11-19T10:17:12;12.87;;;7.30;;
18793;SDS011;29610;49.022;12.114;2023-11-19T10:19:42;10.83;;;5.90;;
18793;SDS011;29610;49.022;12.114;2023-11-19T10:22:10;10.70;;;5.63;;
18793;SDS011;29610;49.022;12.114;2023-11-19T10:24:41;10.30;;;5.93;;
18793;SDS011;29610;49.022;12.114;2023-11-19T10:27:15;8.83;;;4.77;;
18793;SDS011;29610;49.022;12.114;2023-11-19T10:29:44;8.70;;;5.00;;
18793;SDS011;29610;49.022;12.114;2023-11-19T10:32:13;8.80;;;4.73;;
18793;SDS011;29610;49.022;12.114;2023-11-19T10:34:54;8.83;;;5.03;;
18793;SDS011;29610;49.022;12.114;2023-11-19T10:37:33;11.97;;;6.13;;
18793;SDS011;29610;49.022;12.114;2023-11-19T10:40:04;10.83;;;6.03;;
18793;SDS011;29610;49.022;12.114;2023-11-19T10:42:36;9.33;;;5.60;;
18793;SDS011;29610;49.022;12.114;2023-11-19T10:45:05;11.30;;;6.00;;
18793;SDS011;29610;49.022;12.114;2023-11-19T10:47:50;10.37;;;5.20;;
18793;SDS011;29610;49.022;12.114;2023-11-19T10:50:21;10.53;;;6.00;;
18793;SDS011;29610;49.022;12.114;2023-11-19T10:52:51;10.37;;;5.70;;
18793;SDS011;29610;49.022;12.114;2023-11-19T10:55:26;10.53;;;4.63;;
18793;SDS011;29610;49.022;12.114;2023-11-19T10:57:58;7.80;;;4.30;;
18793;SDS011;29610;49.022;12.114;2023-11-19T11:00:30;10.03;;;4.83;;
18793;SDS011;29610;49.022;12.114;2023-11-19T11:03:08;8.90;;;5.10;;
18793;SDS011;29610;49.022;12.114;2023-11-19T11:05:45;8.87;;;5.27;;
18793;SDS011;29610;49.022;12.114;2023-11-19T11:08:15;8.47;;;4.57;;
18793;SDS011;29610;49.022;12.114;2023-11-19T11:10:44;9.20;;;5.43;;
18793;SDS011;29610;49.022;12.114;2023-11-19T11:13:23;13.53;;;7.90;;
18793;SDS011;29610;49.022;12.114;2023-11-19T11:15:54;21.83;;;11.00;;
18793;SDS011;29610;49.022;12.114;2023-11-19T11:18:25;12.60;;;7.93;;
18793;SDS011;29610;49.022;12.114;2023-11-19T11:20:56;11.93;;;7.20;;
18793;SDS011;29610;49.022;12.114;2023-11-19T11:23:39;10.23;;;5.83;;
18793;SDS011;29610;49.022;12.114;2023-11-19T11:26:46;9.10;;;4.90;;
18793;SDS011;29610;49.022;12.114;2023-11-19T11:29:46;10.97;;;5.00;;
18793;SDS011;29610;49.022;12.114;2023-11-19T11:32:30;9.30;;;5.17;;
18793;SDS011;29610;49.022;12.114;2023-11-19T11:35:12;8.53;;;4.97;;
18793;SDS011;29610;49.022;12.114;2023-11-19T11:38:07;9.53;;;5.50;;
18793;SDS011;29610;49.022;12.114;2023-11-19T11:40:37;14.73;;;6.10;;
18793;SDS011;29610;49.022;12.114;2023-11-19T11:43:05;12.03;;;6.10;;
18793;SDS011;29610;49.022;12.114;2023-11-19T11:49:26;15.70;;;9.23;;
18793;SDS011;29610;49.022;12.114;2023-11-19T11:51:57;21.47;;;11.40;;
18793;SDS011;29610;49.022;12.114;2023-11-19T11:54:32;17.67;;;10.93;;
18793;SDS011;29610;49.022;12.114;2023-11-19T11:57:02;15.07;;;9.47;;
18793;SDS011;29610;49.022;12.114;2023-11-19T11:59:46;17.07;;;10.50;;
18793;SDS011;29610;49.022;12.114;2023-11-19T12:02:19;12.57;;;7.20;;
18793;SDS011;29610;49.022;12.114;2023-11-19T12:04:49;12.20;;;6.70;;
18793;SDS011;29610;49.022;12.114;2023-11-19T12:07:20;15.80;;;7.77;;
18793;SDS011;29610;49.022;12.114;2023-11-19T12:09:53;11.60;;;6.70;;
18793;SDS011;29610;49.022;12.114;2023-11-19T12:12:35;12.67;;;6.97;;
18793;SDS011;29610;49.022;12.114;2023-11-19T12:15:06;11.93;;;6.90;;
18793;SDS011;29610;49.022;12.114;2023-11-19T12:17:40;13.93;;;8.03;;
18793;SDS011;29610;49.022;12.114;2023-11-19T12:20:18;11.67;;;6.03;;
18793;SDS011;29610;49.022;12.114;2023-11-19T12:22:53;12.70;;;6.70;;
18793;SDS011;29610;49.022;12.114;2023-11-19T12:25:24;9.90;;;5.80;;
18793;SDS011;29610;49.022;12.114;2023-11-19T12:27:52;10.90;;;5.90;;
18793;SDS011;29610;49.022;12.114;2023-11-19T12:30:21;11.43;;;5.70;;
18793;SDS011;29610;49.022;12.114;2023-11-19T12:32:52;9.80;;;5.20;;
18793;SDS011;29610;49.022;12.114;2023-11-19T12:35:22;12.77;;;6.60;;
18793;SDS011;29610;49.022;12.114;2023-11-19T12:37:51;13.63;;;7.10;;
18793;SDS011;29610;49.022;12.114;2023-11-19T12:40:20;12.60;;;6.53;;
18793;SDS011;29610;49.022;12.114;2023-11-19T12:42:52;10.27;;;4.70;;
18793;SDS011;29610;49.022;12.114;2023-11-19T12:45:22;18.03;;;8.13;;
18793;SDS011;29610;49.022;12.114;2023-11-19T12:48:03;12.57;;;6.10;;
18793;SDS011;29610;49.022;12.114;2023-11-19T12:53:20;10.40;;;5.80;;
18793;SDS011;29610;49.022;12.114;2023-11-19T12:55:51;10.13;;;4.57;;
18793;SDS011;29610;49.022;12.114;2023-11-19T12:58:28;9.10;;;4.57;;
18793;SDS011;29610;49.022;12.114;2023-11-19T13:01:01;9.10;;;3.77;;
18793;SDS011;29610;49.022;12.114;2023-11-19T13:03:31;7.30;;;3.27;;
18793;SDS011;29610;49.022;12.114;2023-11-19T13:06:02;12.67;;;5.57;;
18793;SDS011;29610;49.022;12.114;2023-11-19T13:08:39;7.90;;;3.60;;
18793;SDS011;29610;49.022;12.114;2023-11-19T13:11:12;8.20;;;3.87;;
18793;SDS011;29610;49.022;12.114;2023-11-19T13:13:56;8.20;;;3.97;;
18793;SDS011;29610;49.022;12.114;2023-11-19T13:16:27;9.83;;;4.57;;
18793;SDS011;29610;49.022;12.114;2023-11-19T13:18:56;8.23;;;3.77;;
18793;SDS011;29610;49.022;12.114;2023-11-19T13:21:26;7.20;;;3.40;;
18793;SDS011;29610;49.022;12.114;2023-11-19T13:23:54;8.67;;;3.93;;
18793;SDS011;29610;49.022;12.114;2023-11-19T13:26:25;9.00;;;3.53;;
18793;SDS011;29610;49.022;12.114;2023-11-19T13:28:54;7.70;;;3.70;;
18793;SDS011;29610;49.022;12.114;2023-11-19T13:31:22;10.83;;;4.33;;
18793;SDS011;29610;49.022;12.114;2023-11-19T13:33:51;7.63;;;3.30;;
18793;SDS011;29610;49.022;12.114;2023-11-19T13:36:19;6.10;;;2.70;;
18793;SDS011;29610;49.022;12.114;2023-11-19T13:38:47;7.10;;;2.30;;
18793;SDS011;29610;49.022;12.114;2023-11-19T13:41:16;8.93;;;2.33;;
18793;SDS011;29610;49.022;12.114;2023-11-19T13:43:46;5.97;;;2.13;;
18793;SDS011;29610;49.022;12.114;2023-11-19T13:46:14;7.20;;;2.87;;
18793;SDS011;29610;49.022;12.114;2023-11-19T13:48:42;8.50;;;3.40;;
18793;SDS011;29610;49.022;12.114;2023-11-19T13:51:11;6.43;;;2.30;;
18793;SDS011;29610;49.022;12.114;2023-11-19T13:53:39;7.77;;;2.77;;
18793;SDS011;29610;49.022;12.114;2023-11-19T13:56:11;8.00;;;2.67;;
18793;SDS011;29610;49.022;12.114;2023-11-19T13:58:39;9.50;;;3.13;;
18793;SDS011;29610;49.022;12.114;2023-11-19T14:01:09;7.13;;;3.37;;
18793;SDS011;29610;49.022;12.114;2023-11-19T14:03:39;5.77;;;2.10;;
18793;SDS011;29610;49.022;12.114;2023-11-19T14:06:08;6.40;;;2.60;;
18793;SDS011;29610;49.022;12.114;2023-11-19T14:08:36;5.70;;;2.03;;
18793;SDS011;29610;49.022;12.114;2023-11-19T14:11:05;7.50;;;2.30;;
18793;SDS011;29610;49.022;12.114;2023-11-19T14:13:33;6.87;;;2.87;;
18793;SDS011;29610;49.022;12.114;2023-11-19T14:16:02;6.80;;;2.70;;
18793;SDS011;29610;49.022;12.114;2023-11-19T14:18:34;8.70;;;2.73;;
18793;SDS011;29610;49.022;12.114;2023-11-19T14:21:03;5.93;;;1.77;;
18793;SDS011;29610;49.022;12.114;2023-11-19T14:23:32;7.30;;;2.47;;
18793;SDS011;29610;49.022;12.114;2023-11-19T14:26:00;7.43;;;1.77;;
18793;SDS011;29610;49.022;12.114;2023-11-19T14:28:29;5.93;;;1.40;;
18793;SDS011;29610;49.022;12.114;2023-11-19T14:30:57;6.23;;;1.57;;
18793;SDS011;29610;49.022;12.114;2023-11-19T14:33:27;5.87;;;1.43;;
18793;SDS011;29610;49.022;12.114;2023-11-19T14:35:56;7.60;;;1.70;;
18793;SDS011;29610;49.022;12.114;2023-11-19T14:38:25;7.10;;;2.90;;
18793;SDS011;29610;49.022;12.114;2023-11-19T14:40:53;7.33;;;2.00;;
18793;SDS011;29610;49.022;12.114;2023-11-19T14:43:21;8.60;;;1.77;;
18793;SDS011;29610;49.022;12.114;2023-11-19T14:45:50;5.83;;;1.50;;
18793;SDS011;29610;49.022;12.114;2023-11-19T14:48:21;6.57;;;2.03;;